Richmond Hill, New York
Current Conditions -  °F | °C
As of 10:51 AM on Saturday 25 Oct 2014 (Local Time) from KJFK Reporting Station
Few Clouds Few Clouds  
Wind Chill: 60°   Ceiling: Unl
Heat Index: 60°   Visibility: 10mi
Dew Point: 39°   Wind: 13mph
Humidity: 46%   Direction: 270°W
Pressure: 29.85"   Gusts: NA
Location:  40.7°N, 73.83°W
Report Text: KJFK 251451Z 27011KT 10SM FEW260 16/04 A2985 RMK AO2 SLP108 T01560039 58007
Loading
Personal Weather Stations






























Interactive Weather Map
Tropical Storm Tracking
New forecast layout! Learn more

10-Day Weather Forecast

Advertisements
Track Severe Weather on mobile